createdAt,value
2022-08-27T00:02:09.832Z,7.50
2022-08-27T00:04:39.277Z,7.80
2022-08-27T00:07:08.445Z,7.50
2022-08-27T00:09:37.726Z,7.80
2022-08-27T00:12:08.448Z,7.80
2022-08-27T00:14:38.602Z,7.50
2022-08-27T00:17:07.816Z,8.30
2022-08-27T00:19:36.749Z,8.60
2022-08-27T00:22:06.469Z,8.40
2022-08-27T00:24:36.139Z,8.50
2022-08-27T00:27:17.283Z,8.20
2022-08-27T00:29:47.112Z,7.50
2022-08-27T00:32:16.178Z,8.20
2022-08-27T00:34:44.222Z,7.30
2022-08-27T00:37:12.130Z,7.00
2022-08-27T00:39:39.901Z,7.00
2022-08-27T00:42:08.312Z,8.00
2022-08-27T00:44:36.450Z,7.40
2022-08-27T00:47:13.059Z,7.30
2022-08-27T00:49:57.282Z,7.80
2022-08-27T00:52:32.354Z,7.70
2022-08-27T00:55:14.907Z,7.10
2022-08-27T00:57:47.999Z,7.30
2022-08-27T01:00:18.723Z,6.80
2022-08-27T01:02:47.659Z,6.70
2022-08-27T01:05:25.372Z,7.00
2022-08-27T01:07:59.404Z,7.90
2022-08-27T01:10:30.381Z,8.20
2022-08-27T01:12:58.634Z,7.20
2022-08-27T01:15:29.013Z,6.20
2022-08-27T01:17:58.602Z,7.30
2022-08-27T01:20:34.932Z,7.10
2022-08-27T01:23:55.322Z,7.20
2022-08-27T01:26:23.505Z,7.50
2022-08-27T01:28:53.104Z,7.80
2022-08-27T01:31:20.939Z,8.30
2022-08-27T01:34:03.682Z,8.80
2022-08-27T01:36:32.135Z,7.90
2022-08-27T01:39:00.693Z,8.60
2022-08-27T01:41:28.480Z,8.00
2022-08-27T01:43:56.765Z,7.90
2022-08-27T01:46:28.594Z,9.70
2022-08-27T01:48:56.415Z,9.70
2022-08-27T01:51:24.242Z,9.10
2022-08-27T01:53:51.935Z,8.80
2022-08-27T01:56:19.857Z,9.70
2022-08-27T01:58:47.560Z,9.20
2022-08-27T02:01:19.473Z,10.20
2022-08-27T02:03:48.392Z,9.20
2022-08-27T02:06:16.222Z,9.60
2022-08-27T02:08:43.986Z,9.50
2022-08-27T02:11:12.351Z,10.30
2022-08-27T02:13:40.273Z,10.00
2022-08-27T02:16:09.031Z,11.20
2022-08-27T02:18:38.411Z,11.30
2022-08-27T02:21:10.386Z,11.60
2022-08-27T02:23:38.352Z,11.00
2022-08-27T02:26:06.354Z,9.30
2022-08-27T02:28:35.871Z,10.20
2022-08-27T02:31:05.022Z,11.50
2022-08-27T02:33:35.001Z,10.50
2022-08-27T02:36:03.770Z,10.00
2022-08-27T02:38:34.173Z,10.30
2022-08-27T02:41:01.915Z,12.50
2022-08-27T02:43:29.765Z,10.60
2022-08-27T02:45:57.482Z,10.80
2022-08-27T02:48:25.541Z,10.70
2022-08-27T02:50:54.737Z,11.00
2022-08-27T02:53:22.397Z,11.00
2022-08-27T02:55:52.237Z,11.00
2022-08-27T02:58:19.914Z,10.60
2022-08-27T03:00:48.303Z,11.10
2022-08-27T03:03:16.547Z,10.90
2022-08-27T03:05:45.291Z,10.40
2022-08-27T03:08:13.122Z,11.00
2022-08-27T03:10:41.893Z,11.20
2022-08-27T03:13:09.680Z,11.30
2022-08-27T03:15:37.467Z,9.80
2022-08-27T03:18:21.552Z,11.10
2022-08-27T03:20:55.964Z,11.00
2022-08-27T03:23:32.845Z,11.30
2022-08-27T03:26:09.967Z,11.50
2022-08-27T03:28:38.038Z,11.50
2022-08-27T03:31:15.875Z,10.60
2022-08-27T03:33:43.577Z,10.90
2022-08-27T03:36:14.129Z,11.50
2022-08-27T03:38:41.873Z,11.50
2022-08-27T03:41:09.935Z,11.40
2022-08-27T03:43:37.632Z,11.60
2022-08-27T03:46:08.606Z,11.40
2022-08-27T03:48:36.645Z,11.80
2022-08-27T03:51:09.748Z,11.30
2022-08-27T03:53:40.549Z,11.70
2022-08-27T03:56:09.121Z,11.60
2022-08-27T03:58:38.991Z,11.50
2022-08-27T04:01:08.472Z,11.00
2022-08-27T04:03:37.413Z,11.60
2022-08-27T04:06:05.504Z,11.40
2022-08-27T04:08:33.326Z,11.40
2022-08-27T04:11:05.894Z,11.40
2022-08-27T04:13:33.721Z,10.90
2022-08-27T04:16:02.061Z,11.20
2022-08-27T04:18:29.799Z,11.50
2022-08-27T04:20:57.905Z,11.90
2022-08-27T04:23:25.624Z,11.70
2022-08-27T04:25:53.312Z,11.40
2022-08-27T04:28:21.312Z,11.50
2022-08-27T04:30:49.250Z,12.90
2022-08-27T04:33:17.369Z,13.60
2022-08-27T04:35:45.082Z,12.30
2022-08-27T04:38:12.990Z,12.50
2022-08-27T04:40:59.170Z,12.80
2022-08-27T04:43:28.251Z,12.90
2022-08-27T04:45:56.563Z,12.80
2022-08-27T04:48:25.721Z,14.00
2022-08-27T04:50:53.663Z,13.40
2022-08-27T04:53:22.113Z,11.70
2022-08-27T04:55:55.933Z,12.50
2022-08-27T04:58:26.335Z,13.10
2022-08-27T05:01:01.611Z,12.30
2022-08-27T05:03:29.416Z,12.90
2022-08-27T05:06:04.802Z,13.40
2022-08-27T05:08:34.025Z,12.90
2022-08-27T05:11:02.365Z,12.80
2022-08-27T05:13:30.351Z,12.90
2022-08-27T05:16:08.339Z,12.30
2022-08-27T05:18:47.693Z,12.60
2022-08-27T05:21:34.094Z,12.40
2022-08-27T05:24:04.237Z,12.30
2022-08-27T05:26:34.949Z,12.00
2022-08-27T05:29:06.308Z,12.10
2022-08-27T05:34:10.744Z,12.70
2022-08-27T05:36:47.835Z,13.10
2022-08-27T05:39:17.808Z,12.20
2022-08-27T05:41:45.674Z,13.10
2022-08-27T05:47:03.654Z,12.70
2022-08-27T05:49:31.799Z,12.60
2022-08-27T05:51:59.542Z,12.70
2022-08-27T05:54:27.287Z,12.20
2022-08-27T05:56:55.180Z,11.80
2022-08-27T05:59:45.994Z,12.40
2022-08-27T06:02:13.798Z,12.30
2022-08-27T06:04:41.682Z,12.10
2022-08-27T06:07:10.593Z,12.20
2022-08-27T06:09:39.247Z,10.90
2022-08-27T06:12:08.021Z,12.40
2022-08-27T06:14:37.337Z,12.40
2022-08-27T06:17:06.409Z,13.00
2022-08-27T06:19:36.281Z,11.30
2022-08-27T06:22:10.057Z,11.90
2022-08-27T06:24:41.870Z,12.60
2022-08-27T06:27:14.003Z,11.20
2022-08-27T06:29:43.329Z,11.10
2022-08-27T06:32:13.125Z,11.90
2022-08-27T06:34:41.051Z,11.70
2022-08-27T06:37:09.290Z,12.60
2022-08-27T06:39:39.721Z,12.50
2022-08-27T06:44:42.071Z,11.40
2022-08-27T06:47:10.199Z,12.30
2022-08-27T06:49:41.308Z,12.20
2022-08-27T06:52:11.610Z,12.00
2022-08-27T06:54:40.266Z,11.60
2022-08-27T06:57:08.040Z,12.80
2022-08-27T06:59:35.985Z,12.30
2022-08-27T07:02:04.218Z,11.90
2022-08-27T07:04:33.022Z,12.90
2022-08-27T07:07:02.706Z,12.60
2022-08-27T07:09:34.400Z,12.40
2022-08-27T07:12:02.469Z,12.60
2022-08-27T07:14:35.677Z,12.60
2022-08-27T07:17:11.189Z,12.50
2022-08-27T07:19:44.355Z,12.90
2022-08-27T07:22:13.074Z,11.70
2022-08-27T07:24:41.093Z,12.00
2022-08-27T07:27:09.610Z,11.20
2022-08-27T07:29:37.408Z,10.90
2022-08-27T07:32:05.473Z,10.60
2022-08-27T07:34:33.153Z,10.20
2022-08-27T07:37:00.847Z,9.80
2022-08-27T07:39:28.589Z,9.80
2022-08-27T07:42:16.621Z,10.20
2022-08-27T07:44:44.471Z,10.10
2022-08-27T07:47:12.297Z,10.10
2022-08-27T07:49:41.096Z,9.70
2022-08-27T07:52:08.825Z,10.10
2022-08-27T07:54:36.596Z,8.90
2022-08-27T07:57:04.875Z,9.20
2022-08-27T07:59:33.087Z,8.20
2022-08-27T08:02:01.082Z,9.20
2022-08-27T08:04:29.021Z,8.20
2022-08-27T08:06:56.854Z,8.80
2022-08-27T08:09:24.984Z,9.30
2022-08-27T08:11:54.050Z,7.80
2022-08-27T08:14:22.473Z,8.80
2022-08-27T08:16:50.630Z,8.00
2022-08-27T08:19:18.422Z,8.00
2022-08-27T08:21:46.093Z,7.10
2022-08-27T08:24:13.774Z,7.00
2022-08-27T08:26:42.041Z,6.40
2022-08-27T08:29:16.662Z,6.30
2022-08-27T08:31:50.243Z,5.60
2022-08-27T08:34:19.983Z,5.90
2022-08-27T08:36:53.982Z,5.30
2022-08-27T08:39:24.160Z,5.80
2022-08-27T08:41:57.286Z,5.50
2022-08-27T08:44:41.295Z,6.30
2022-08-27T08:47:50.589Z,5.50
2022-08-27T08:50:30.592Z,5.80
2022-08-27T08:53:11.638Z,5.60
2022-08-27T08:55:48.790Z,6.10
2022-08-27T08:58:40.610Z,5.50
2022-08-27T09:01:10.210Z,5.20
2022-08-27T09:03:42.137Z,5.80
2022-08-27T09:06:27.714Z,5.60
2022-08-27T09:08:56.148Z,5.20
2022-08-27T09:11:51.711Z,5.00
2022-08-27T09:14:32.233Z,5.20
2022-08-27T09:17:02.577Z,5.90
2022-08-27T09:19:37.151Z,5.50
2022-08-27T09:22:38.331Z,4.50
2022-08-27T09:25:25.524Z,4.00
2022-08-27T09:27:57.545Z,5.60
2022-08-27T09:30:32.059Z,4.30
2022-08-27T09:33:04.394Z,4.90
2022-08-27T09:35:42.234Z,5.50
2022-08-27T09:38:10.839Z,4.60
2022-08-27T09:40:47.073Z,3.80
2022-08-27T09:43:17.446Z,4.30
2022-08-27T09:45:59.678Z,3.60
2022-08-27T09:48:32.489Z,3.80
2022-08-27T09:51:21.742Z,4.30
2022-08-27T09:53:57.468Z,4.40
2022-08-27T09:56:39.160Z,4.50
2022-08-27T09:59:24.655Z,5.00
2022-08-27T10:02:04.288Z,4.90
2022-08-27T10:04:51.398Z,5.30
2022-08-27T10:07:53.805Z,3.90
2022-08-27T10:10:38.475Z,4.40
2022-08-27T10:13:20.379Z,4.30
2022-08-27T10:16:09.762Z,4.20
2022-08-27T10:18:56.717Z,5.30
2022-08-27T10:21:45.792Z,4.50
2022-08-27T10:25:17.045Z,4.00
2022-08-27T10:27:59.500Z,4.10
2022-08-27T10:31:00.529Z,3.60
2022-08-27T10:34:22.217Z,3.80
2022-08-27T10:37:16.055Z,3.70
2022-08-27T10:40:03.508Z,3.30
2022-08-27T10:43:17.070Z,4.30
2022-08-27T10:46:04.157Z,3.60
2022-08-27T10:48:53.974Z,3.90
2022-08-27T10:51:53.698Z,3.30
2022-08-27T10:54:31.900Z,3.60
2022-08-27T10:57:40.255Z,2.60
2022-08-27T11:00:21.199Z,2.90
2022-08-27T11:02:58.618Z,3.50
2022-08-27T11:05:36.972Z,3.40
2022-08-27T11:08:19.738Z,3.90
2022-08-27T11:10:53.566Z,3.50
2022-08-27T11:13:33.777Z,3.20
2022-08-27T11:16:10.703Z,3.80
2022-08-27T11:19:02.689Z,3.50
2022-08-27T11:22:07.114Z,3.40
2022-08-27T11:24:59.750Z,3.50
2022-08-27T11:27:32.808Z,3.40
2022-08-27T11:30:29.227Z,3.00
2022-08-27T11:33:21.134Z,3.70
2022-08-27T11:36:32.005Z,3.70
2022-08-27T11:39:33.737Z,3.40
2022-08-27T11:42:14.073Z,3.20
2022-08-27T11:44:50.771Z,3.30
2022-08-27T11:47:26.245Z,3.30
2022-08-27T11:50:01.386Z,2.80
2022-08-27T11:52:41.803Z,3.30
2022-08-27T11:55:21.654Z,3.50
2022-08-27T11:58:09.454Z,3.30
2022-08-27T12:00:42.097Z,3.20
2022-08-27T12:03:19.016Z,3.50
2022-08-27T12:05:54.140Z,3.30
2022-08-27T12:08:21.837Z,3.30
2022-08-27T12:11:27.484Z,3.40
2022-08-27T12:14:32.281Z,3.80
2022-08-27T12:17:08.228Z,3.10
2022-08-27T12:19:57.030Z,3.20
2022-08-27T12:23:09.576Z,3.20
2022-08-27T12:25:37.323Z,3.40
2022-08-27T12:28:09.288Z,3.40
2022-08-27T12:30:41.387Z,3.50
2022-08-27T12:33:26.523Z,3.40
2022-08-27T12:35:58.013Z,3.10
2022-08-27T12:38:31.931Z,3.80
2022-08-27T12:41:04.052Z,3.10
2022-08-27T12:43:35.538Z,4.00
2022-08-27T12:46:06.676Z,4.30
2022-08-27T12:48:41.873Z,3.90
2022-08-27T12:51:31.246Z,3.80
2022-08-27T12:54:13.176Z,4.00
2022-08-27T12:56:58.889Z,4.20
2022-08-27T13:00:00.052Z,3.90
2022-08-27T13:04:55.847Z,3.40
2022-08-27T13:07:38.293Z,4.00
2022-08-27T13:10:18.409Z,3.70
2022-08-27T13:12:48.977Z,3.80
2022-08-27T13:15:19.974Z,3.70
2022-08-27T13:20:24.587Z,3.60
2022-08-27T13:22:54.252Z,3.50
2022-08-27T13:25:36.772Z,3.30
2022-08-27T13:28:13.250Z,3.60
2022-08-27T13:30:45.968Z,3.30
2022-08-27T13:33:22.169Z,3.40
2022-08-27T13:35:51.228Z,3.50
2022-08-27T13:38:22.524Z,3.60
2022-08-27T13:40:57.980Z,3.80
2022-08-27T13:43:43.529Z,4.20
2022-08-27T13:46:21.478Z,3.50
2022-08-27T13:48:54.882Z,3.70
2022-08-27T13:51:33.351Z,3.10
2022-08-27T13:54:12.943Z,3.20
2022-08-27T13:56:48.974Z,3.30
2022-08-27T13:59:20.036Z,2.90
2022-08-27T14:02:31.867Z,3.40
2022-08-27T14:05:28.067Z,3.60
2022-08-27T14:08:13.325Z,3.20
2022-08-27T14:10:47.697Z,3.30
2022-08-27T14:13:23.670Z,3.00
2022-08-27T14:16:00.257Z,3.40
2022-08-27T14:18:57.415Z,3.10
2022-08-27T14:21:22.702Z,3.20
2022-08-27T14:23:52.359Z,3.00
2022-08-27T14:26:20.377Z,2.60
2022-08-27T14:28:48.429Z,3.40
2022-08-27T14:31:16.582Z,3.10
2022-08-27T14:33:47.417Z,3.40
2022-08-27T14:36:16.313Z,3.40
2022-08-27T14:38:48.085Z,4.00
2022-08-27T14:41:17.194Z,3.10
2022-08-27T14:43:49.757Z,3.20
2022-08-27T14:46:30.070Z,3.40
2022-08-27T14:49:00.950Z,3.20
2022-08-27T14:51:32.159Z,4.20
2022-08-27T14:53:59.828Z,3.60
2022-08-27T14:56:27.578Z,4.40
2022-08-27T14:58:55.630Z,4.00
2022-08-27T15:01:26.131Z,3.30
2022-08-27T15:03:54.850Z,2.90
2022-08-27T15:06:23.994Z,2.70
2022-08-27T15:08:52.253Z,3.10
2022-08-27T15:11:28.051Z,2.70
2022-08-27T15:13:58.135Z,2.80
2022-08-27T15:16:31.361Z,2.80
2022-08-27T15:19:01.433Z,2.90
2022-08-27T15:21:31.073Z,3.00
2022-08-27T15:24:03.425Z,2.80
2022-08-27T15:26:31.627Z,2.70
2022-08-27T15:29:04.095Z,3.00
2022-08-27T15:31:34.886Z,3.30
2022-08-27T15:34:03.145Z,3.00
2022-08-27T15:36:30.850Z,2.70
2022-08-27T15:38:58.561Z,2.90
2022-08-27T15:41:29.286Z,3.20
2022-08-27T15:46:26.563Z,3.20
2022-08-27T15:48:54.331Z,2.90
2022-08-27T15:51:29.067Z,4.10
2022-08-27T15:53:58.195Z,3.10
2022-08-27T15:56:29.456Z,2.80
2022-08-27T15:59:00.308Z,2.80
2022-08-27T16:01:35.843Z,2.60
2022-08-27T16:04:06.100Z,2.80
2022-08-27T16:06:34.969Z,2.80
2022-08-27T16:09:04.769Z,2.70
2022-08-27T16:11:32.641Z,2.90
2022-08-27T16:14:01.349Z,2.50
2022-08-27T16:16:32.408Z,3.10
2022-08-27T16:19:02.882Z,2.50
2022-08-27T16:21:31.102Z,2.80
2022-08-27T16:23:58.789Z,2.60
2022-08-27T16:26:26.501Z,2.70
2022-08-27T16:28:54.473Z,2.20
2022-08-27T16:31:22.252Z,2.50
2022-08-27T16:33:50.186Z,2.40
2022-08-27T16:36:18.482Z,2.70
2022-08-27T16:38:46.278Z,2.60
2022-08-27T16:41:14.265Z,2.20
2022-08-27T16:43:43.302Z,2.40
2022-08-27T16:46:11.098Z,2.40
2022-08-27T16:49:01.208Z,2.40
2022-08-27T16:51:34.522Z,2.40
2022-08-27T16:54:06.189Z,2.20
2022-08-27T16:56:37.770Z,2.20
2022-08-27T16:59:07.553Z,2.40
2022-08-27T17:01:35.399Z,2.50
2022-08-27T17:04:10.493Z,2.60
2022-08-27T17:06:44.709Z,2.30
2022-08-27T17:09:13.955Z,2.30
2022-08-27T17:11:43.532Z,2.40
2022-08-27T17:14:12.238Z,2.30
2022-08-27T17:16:41.593Z,2.20
2022-08-27T17:19:16.825Z,2.50
2022-08-27T17:21:46.051Z,1.90
2022-08-27T17:24:13.958Z,2.20
2022-08-27T17:26:41.674Z,2.30
2022-08-27T17:29:09.689Z,2.10
2022-08-27T17:31:41.629Z,1.80
2022-08-27T17:34:21.538Z,2.30
2022-08-27T17:36:51.928Z,2.10
2022-08-27T17:39:20.791Z,2.30
2022-08-27T17:41:52.626Z,2.00
2022-08-27T17:44:31.706Z,2.30
2022-08-27T17:47:05.825Z,2.50
2022-08-27T17:49:34.507Z,2.00
2022-08-27T17:52:09.634Z,1.90
2022-08-27T17:54:37.235Z,2.20
2022-08-27T17:57:16.401Z,2.10
2022-08-27T17:59:45.151Z,2.10
2022-08-27T18:02:22.132Z,2.30
2022-08-27T18:04:50.781Z,2.30
2022-08-27T18:07:19.423Z,2.30
2022-08-27T18:09:49.029Z,2.40
2022-08-27T18:12:21.692Z,2.10
2022-08-27T18:15:02.102Z,2.20
2022-08-27T18:17:30.215Z,2.50
2022-08-27T18:19:59.390Z,2.60
2022-08-27T18:22:27.900Z,2.70
2022-08-27T18:25:02.892Z,2.90
2022-08-27T18:27:34.019Z,2.70
2022-08-27T18:32:31.078Z,2.90
2022-08-27T18:35:14.977Z,3.30
2022-08-27T18:37:42.676Z,3.30
2022-08-27T18:40:12.842Z,3.50
2022-08-27T18:42:41.209Z,3.20
2022-08-27T18:45:16.642Z,3.00
2022-08-27T18:47:45.279Z,2.50
2022-08-27T18:50:17.518Z,3.00
2022-08-27T18:52:49.974Z,2.90
2022-08-27T18:55:24.705Z,3.00
2022-08-27T18:57:52.491Z,2.90
2022-08-27T19:00:21.137Z,2.90
2022-08-27T19:02:53.476Z,3.30
2022-08-27T19:05:26.921Z,3.20
2022-08-27T19:07:58.175Z,2.70
2022-08-27T19:10:26.942Z,2.90
2022-08-27T19:12:55.030Z,3.30
2022-08-27T19:15:23.047Z,3.50
2022-08-27T19:17:57.371Z,3.40
2022-08-27T19:20:27.412Z,2.90
2022-08-27T19:22:55.813Z,3.90
2022-08-27T19:25:23.543Z,3.70
2022-08-27T19:27:52.693Z,3.60
2022-08-27T19:30:20.711Z,3.50
2022-08-27T19:32:48.416Z,3.50
2022-08-27T19:35:22.782Z,3.50
2022-08-27T19:37:53.261Z,3.70
2022-08-27T19:40:22.911Z,3.20
2022-08-27T19:42:51.118Z,3.10
2022-08-27T19:45:23.109Z,3.20
2022-08-27T19:47:53.040Z,3.90
2022-08-27T19:50:23.588Z,3.70
2022-08-27T19:52:52.399Z,3.90
2022-08-27T19:55:20.816Z,3.50
2022-08-27T19:57:49.914Z,3.80
2022-08-27T20:00:22.239Z,3.50
2022-08-27T20:02:50.755Z,3.80
2022-08-27T20:05:21.178Z,3.20
2022-08-27T20:07:52.752Z,3.80
2022-08-27T20:13:00.818Z,3.60
2022-08-27T20:15:28.533Z,4.00
2022-08-27T20:17:59.197Z,3.60
2022-08-27T20:22:57.234Z,3.50
2022-08-27T20:25:26.363Z,4.10
2022-08-27T20:27:54.616Z,4.10
2022-08-27T20:30:27.884Z,4.10
2022-08-27T20:32:57.183Z,4.10
2022-08-27T20:35:27.550Z,3.90
2022-08-27T20:37:55.370Z,4.00
2022-08-27T20:40:33.193Z,4.00
2022-08-27T20:43:01.910Z,3.90
2022-08-27T20:45:32.302Z,4.20
2022-08-27T20:48:00.860Z,3.80
2022-08-27T20:50:32.173Z,4.10
2022-08-27T20:53:00.738Z,4.00
2022-08-27T20:55:30.008Z,4.60
2022-08-27T20:58:16.160Z,3.40
2022-08-27T21:00:43.937Z,4.00
2022-08-27T21:03:15.003Z,3.40
2022-08-27T21:05:46.997Z,3.30
2022-08-27T21:08:18.653Z,3.50
2022-08-27T21:10:54.955Z,3.10
2022-08-27T21:13:24.794Z,3.10
2022-08-27T21:15:54.603Z,2.60
2022-08-27T21:18:29.952Z,3.20
2022-08-27T21:21:04.736Z,3.00
2022-08-27T21:23:35.446Z,2.40
2022-08-27T21:26:10.045Z,2.70
2022-08-27T21:28:41.578Z,2.80
2022-08-27T21:31:10.142Z,3.10
2022-08-27T21:33:39.667Z,2.60
2022-08-27T21:36:11.834Z,2.40
2022-08-27T21:38:40.710Z,2.90
2022-08-27T21:41:09.057Z,3.20
2022-08-27T21:43:37.425Z,2.90
2022-08-27T21:46:05.870Z,3.50
2022-08-27T21:48:34.026Z,3.00
2022-08-27T21:51:12.104Z,3.40
2022-08-27T21:53:41.026Z,2.80
2022-08-27T21:56:12.112Z,3.20
2022-08-27T21:58:40.722Z,3.80
2022-08-27T22:01:08.687Z,3.90
2022-08-27T22:03:36.854Z,4.80
2022-08-27T22:06:07.212Z,5.40
2022-08-27T22:08:35.175Z,4.90
2022-08-27T22:11:03.065Z,4.90
2022-08-27T22:13:32.693Z,4.70
2022-08-27T22:16:00.623Z,4.90
2022-08-27T22:18:28.813Z,5.30
2022-08-27T22:20:58.818Z,5.10
2022-08-27T22:23:27.524Z,5.40
2022-08-27T22:25:55.346Z,5.90
2022-08-27T22:28:23.462Z,5.40
2022-08-27T22:30:51.310Z,5.40
2022-08-27T22:33:19.068Z,5.70
2022-08-27T22:35:47.723Z,5.00
2022-08-27T22:38:15.669Z,4.50
2022-08-27T22:40:43.921Z,4.80
2022-08-27T22:43:12.534Z,4.50
2022-08-27T22:45:40.299Z,4.30
2022-08-27T22:48:08.256Z,4.60
2022-08-27T22:50:36.081Z,3.80
2022-08-27T22:53:04.292Z,4.00
2022-08-27T22:55:31.992Z,4.50
2022-08-27T22:58:02.047Z,4.30
2022-08-27T23:00:35.437Z,4.20
2022-08-27T23:03:07.135Z,4.60
2022-08-27T23:05:41.753Z,4.40
2022-08-27T23:08:14.103Z,4.10
2022-08-27T23:10:43.495Z,4.20
2022-08-27T23:13:13.298Z,4.30
2022-08-27T23:15:42.123Z,4.20
2022-08-27T23:18:10.377Z,4.10
2022-08-27T23:20:38.174Z,3.80
2022-08-27T23:23:07.967Z,3.70
2022-08-27T23:25:54.880Z,3.70
2022-08-27T23:28:23.490Z,3.60
2022-08-27T23:30:51.904Z,3.90
2022-08-27T23:33:20.077Z,4.00
2022-08-27T23:35:51.317Z,4.10
2022-08-27T23:40:50.353Z,3.40
2022-08-27T23:43:18.440Z,3.90
2022-08-27T23:45:46.292Z,3.90
2022-08-27T23:48:14.293Z,3.80
2022-08-27T23:50:42.851Z,4.00
2022-08-27T23:53:11.838Z,3.80
2022-08-27T23:55:40.950Z,4.90
2022-08-27T23:58:09.897Z,4.00
